createdAt,value
2019-03-05T00:02:12.865Z,16.23
2019-03-05T00:04:44.496Z,19.60
2019-03-05T00:07:20.448Z,14.77
2019-03-05T00:09:53.057Z,17.90
2019-03-05T00:12:24.265Z,20.50
2019-03-05T00:14:54.302Z,22.73
2019-03-05T00:17:23.485Z,19.97
2019-03-05T00:19:55.529Z,18.17
2019-03-05T00:22:25.925Z,23.90
2019-03-05T00:25:23.704Z,17.23
2019-03-05T00:28:05.419Z,19.13
2019-03-05T00:31:04.604Z,19.67
2019-03-05T00:34:14.968Z,15.50
2019-03-05T00:37:17.051Z,22.17
2019-03-05T00:40:27.725Z,17.70
2019-03-05T00:45:40.438Z,15.30
2019-03-05T01:19:37.396Z,20.80
2019-03-05T01:22:07.581Z,15.93
2019-03-05T01:24:43.216Z,16.80
2019-03-05T01:27:12.238Z,16.47
2019-03-05T07:39:50.416Z,11.43
2019-03-05T07:42:24.660Z,10.47
2019-03-05T07:44:56.578Z,11.47
2019-03-05T08:10:59.611Z,11.33
2019-03-05T08:14:02.456Z,9.67
2019-03-05T08:45:32.120Z,12.53
2019-03-05T08:48:00.693Z,11.83
2019-03-05T08:50:42.683Z,10.50
2019-03-05T08:53:10.815Z,13.90
2019-03-05T08:55:38.482Z,8.87
2019-03-05T08:58:11.865Z,10.07
2019-03-05T09:00:48.869Z,13.43
2019-03-05T09:03:16.726Z,9.27
2019-03-05T09:05:45.842Z,10.03
2019-03-05T09:08:23.923Z,6.65
2019-03-05T09:21:01.161Z,10.93
2019-03-05T09:23:30.090Z,7.70
2019-03-05T09:25:57.769Z,9.87
2019-03-05T09:28:25.990Z,7.60
2019-03-05T09:30:59.028Z,8.80
2019-03-05T09:33:28.647Z,7.83
2019-03-05T09:42:03.523Z,12.43
2019-03-05T09:44:41.115Z,9.17
2019-03-05T09:47:18.144Z,12.83
2019-03-05T09:50:00.855Z,4.57
2019-03-05T09:52:39.017Z,3.33
2019-03-05T09:55:10.804Z,10.87
2019-03-05T09:57:46.934Z,8.67
2019-03-05T10:00:26.790Z,3.27
2019-03-05T10:03:00.944Z,6.80
2019-03-05T10:05:46.286Z,5.77
2019-03-05T10:08:14.041Z,5.67
2019-03-05T10:12:41.106Z,4.03
2019-03-05T10:15:26.355Z,7.93
2019-03-05T10:18:13.283Z,8.83
2019-03-05T10:21:12.693Z,7.53
2019-03-05T10:24:37.995Z,4.73
2019-03-05T10:27:19.689Z,5.00
2019-03-05T10:30:09.435Z,6.50
2019-03-05T10:32:52.609Z,7.13
2019-03-05T10:35:28.369Z,3.53
2019-03-05T10:38:20.221Z,3.93
2019-03-05T10:40:59.689Z,5.07
2019-03-05T10:43:48.160Z,5.03
2019-03-05T10:46:45.098Z,3.83
2019-03-05T10:49:28.742Z,5.00
2019-03-05T10:52:15.310Z,2.70
2019-03-05T10:54:53.484Z,3.87
2019-03-05T10:57:39.856Z,3.30
2019-03-05T11:00:58.932Z,2.30
2019-03-05T11:04:14.907Z,2.87
2019-03-05T11:06:55.477Z,3.33
2019-03-05T11:10:31.764Z,5.07
2019-03-05T11:13:21.174Z,4.93
2019-03-05T11:15:58.491Z,3.43
2019-03-05T11:18:31.203Z,4.50
2019-03-05T11:21:06.940Z,5.13
2019-03-05T11:23:44.065Z,4.20
2019-03-05T11:26:11.399Z,5.37
2019-03-05T11:29:26.770Z,6.80
2019-03-05T11:32:19.539Z,4.77
2019-03-05T11:35:21.078Z,3.60
2019-03-05T11:37:50.333Z,3.80
2019-03-05T11:41:43.890Z,6.43
2019-03-05T11:44:02.915Z,5.30
2019-03-05T11:46:52.874Z,3.83
2019-03-05T11:49:33.643Z,2.53
2019-03-05T11:52:13.575Z,2.13
2019-03-05T11:54:49.565Z,4.00
2019-03-05T11:57:17.490Z,3.57
2019-03-05T11:59:50.058Z,2.93
2019-03-05T12:02:33.063Z,1.90
2019-03-05T12:05:03.058Z,2.90
2019-03-05T12:07:48.406Z,4.53
2019-03-05T12:10:20.389Z,3.07
2019-03-05T12:12:49.354Z,4.07
2019-03-05T12:15:44.327Z,6.73
2019-03-05T12:18:28.041Z,3.87
2019-03-05T12:21:00.465Z,3.83
2019-03-05T12:23:47.181Z,6.27
2019-03-05T12:26:15.541Z,5.90
2019-03-05T12:28:47.600Z,3.37
2019-03-05T12:31:42.045Z,6.27
2019-03-05T12:34:22.942Z,3.73
2019-03-05T12:37:10.353Z,1.70
2019-03-05T12:40:02.015Z,3.47
2019-03-05T12:42:35.654Z,3.50
2019-03-05T12:45:10.500Z,4.30
2019-03-05T12:47:47.691Z,4.17
2019-03-05T12:50:28.190Z,5.90
2019-03-05T12:53:04.521Z,5.13
2019-03-05T12:55:44.111Z,5.13
2019-03-05T12:58:18.947Z,7.03
2019-03-05T13:01:15.142Z,4.50
2019-03-05T13:04:00.688Z,5.77
2019-03-05T13:07:01.247Z,2.80
2019-03-05T13:13:14.002Z,5.07
2019-03-05T13:16:05.325Z,4.33
2019-03-05T13:19:00.512Z,4.07
2019-03-05T13:21:48.498Z,2.17
2019-03-05T13:24:18.435Z,6.17
2019-03-05T13:26:55.494Z,4.40
2019-03-05T13:29:35.604Z,3.57
2019-03-05T13:33:06.260Z,4.17
2019-03-05T13:35:45.904Z,7.50
2019-03-05T13:38:24.868Z,4.93
2019-03-05T13:41:18.077Z,4.43
2019-03-05T13:44:02.399Z,4.87
2019-03-05T13:46:48.533Z,4.67
2019-03-05T13:50:04.494Z,4.67
2019-03-05T13:53:23.818Z,9.10
2019-03-05T13:56:20.347Z,4.67
2019-03-05T13:59:27.286Z,5.57
2019-03-05T14:02:14.926Z,7.53
2019-03-05T14:05:35.845Z,9.57
2019-03-05T14:08:57.401Z,8.40
2019-03-05T14:11:36.243Z,6.43
2019-03-05T14:14:23.647Z,8.83
2019-03-05T14:17:24.351Z,6.03
2019-03-05T14:19:59.155Z,9.07
2019-03-05T14:22:28.113Z,14.10
2019-03-05T14:25:02.000Z,8.73
2019-03-05T14:27:43.831Z,8.53
2019-03-05T14:30:21.142Z,13.93
2019-03-05T14:32:53.727Z,8.97
2019-03-05T14:35:31.904Z,9.50
2019-03-05T14:38:16.741Z,9.50
2019-03-05T14:40:45.322Z,10.67
2019-03-05T14:43:17.228Z,8.13
2019-03-05T14:45:47.370Z,7.90
2019-03-05T14:48:18.234Z,9.83
2019-03-05T14:50:48.750Z,8.17
2019-03-05T14:53:20.241Z,8.13
2019-03-05T14:55:50.267Z,15.13
2019-03-05T14:58:31.429Z,9.17
2019-03-05T15:01:10.020Z,11.27
2019-03-05T15:03:45.338Z,13.57
2019-03-05T15:06:21.364Z,12.17
2019-03-05T15:08:53.095Z,7.97
2019-03-05T15:11:36.633Z,10.47
2019-03-05T15:14:17.770Z,9.57
2019-03-05T15:16:52.818Z,11.30
2019-03-05T15:19:25.061Z,11.10
2019-03-05T15:21:59.751Z,11.53
2019-03-05T15:24:29.394Z,13.10
2019-03-05T15:27:04.044Z,16.50
2019-03-05T15:29:35.498Z,6.70
2019-03-05T15:32:13.395Z,7.90
2019-03-05T15:34:43.158Z,10.53
2019-03-05T15:37:19.330Z,12.47
2019-03-05T15:39:54.155Z,10.87
2019-03-05T15:42:40.095Z,9.33
2019-03-05T15:45:19.599Z,11.37
2019-03-05T15:47:52.136Z,8.67
2019-03-05T15:50:25.713Z,10.27
2019-03-05T15:53:04.284Z,10.83
2019-03-05T15:55:37.106Z,12.50
2019-03-05T15:58:11.625Z,9.70
2019-03-05T16:00:43.374Z,9.90
2019-03-05T16:03:17.661Z,8.53
2019-03-05T16:05:53.961Z,6.33
2019-03-05T16:08:37.147Z,5.70
2019-03-05T16:11:09.363Z,6.70
2019-03-05T16:13:44.439Z,10.87
2019-03-05T16:16:18.593Z,5.80
2019-03-05T16:18:56.524Z,9.73
2019-03-05T16:21:37.109Z,6.80
2019-03-05T16:24:12.216Z,9.73
2019-03-05T16:26:52.147Z,7.23
2019-03-05T16:29:31.851Z,8.07
2019-03-05T16:32:23.166Z,9.67
2019-03-05T16:35:18.492Z,9.10
2019-03-05T16:37:53.692Z,13.97
2019-03-05T16:40:44.505Z,4.40
2019-03-05T16:43:23.221Z,9.80
2019-03-05T16:46:21.855Z,10.63
2019-03-05T16:49:23.068Z,12.00
2019-03-05T16:52:21.368Z,9.47
2019-03-05T16:54:59.974Z,4.50
2019-03-05T16:57:51.517Z,15.00
2019-03-05T17:00:33.415Z,12.17
2019-03-05T17:03:22.576Z,6.70
2019-03-05T17:06:16.878Z,6.83
2019-03-05T17:09:19.666Z,4.97
2019-03-05T17:11:59.423Z,10.63
2019-03-05T17:14:28.446Z,14.17
2019-03-05T17:17:00.075Z,10.00
2019-03-05T17:19:29.310Z,6.63
2019-03-05T17:21:58.933Z,9.47
2019-03-05T17:24:27.944Z,8.40
2019-03-05T17:26:56.917Z,11.00
2019-03-05T17:29:29.511Z,11.43
2019-03-05T17:31:59.625Z,12.03
2019-03-05T17:34:29.571Z,5.97
2019-03-05T17:37:08.310Z,11.03
2019-03-05T17:39:40.897Z,7.77
2019-03-05T17:42:09.911Z,6.10
2019-03-05T17:44:38.919Z,7.30
2019-03-05T17:47:07.877Z,7.60
2019-03-05T17:49:40.558Z,7.13
2019-03-05T17:52:09.446Z,7.70
2019-03-05T17:58:17.357Z,10.20
2019-03-05T18:00:51.301Z,6.17
2019-03-05T18:03:19.592Z,8.77
2019-03-05T18:05:48.458Z,4.63
2019-03-05T18:08:20.066Z,14.83
2019-03-05T18:10:50.179Z,11.13
2019-03-05T18:13:22.689Z,13.90
2019-03-05T18:15:51.480Z,18.77
2019-03-05T18:18:24.935Z,16.87
2019-03-05T18:20:54.102Z,11.80
2019-03-05T18:23:24.142Z,12.87
2019-03-05T18:25:56.457Z,13.90
2019-03-05T18:28:27.894Z,6.27
2019-03-05T18:30:58.091Z,7.57
2019-03-05T18:33:26.868Z,9.27
2019-03-05T18:35:56.512Z,9.67
2019-03-05T18:38:26.594Z,7.90
2019-03-05T18:40:55.466Z,10.57
2019-03-05T18:43:25.518Z,6.03
2019-03-05T18:45:54.473Z,13.33
2019-03-05T18:48:27.746Z,8.37
2019-03-05T18:50:56.739Z,13.43
2019-03-05T18:53:25.820Z,10.00
2019-03-05T18:55:55.345Z,12.03
2019-03-05T18:58:24.379Z,7.93
2019-03-05T19:00:54.233Z,11.17
2019-03-05T19:03:23.195Z,13.43
2019-03-05T19:05:52.047Z,7.53
2019-03-05T19:08:20.944Z,17.50
2019-03-05T19:10:49.940Z,34.30
2019-03-05T19:13:18.825Z,40.57
2019-03-05T19:15:47.829Z,42.50
2019-03-05T19:18:18.695Z,46.87
2019-03-05T19:20:47.479Z,37.47
2019-03-05T19:23:18.362Z,35.37
2019-03-05T19:25:48.381Z,25.40
2019-03-05T19:28:17.334Z,17.57
2019-03-05T19:30:46.334Z,13.10
2019-03-05T19:33:17.803Z,11.07
2019-03-05T19:35:46.788Z,14.47
2019-03-05T19:38:15.703Z,10.93
2019-03-05T19:40:44.734Z,8.73
2019-03-05T19:43:13.736Z,9.93
2019-03-05T19:45:42.713Z,13.27
2019-03-05T19:48:11.611Z,16.93
2019-03-05T19:50:40.452Z,11.43
2019-03-05T19:53:09.701Z,8.20
2019-03-05T19:55:38.815Z,10.33
2019-03-05T19:58:10.189Z,11.90
2019-03-05T20:00:51.268Z,6.67
2019-03-05T20:03:20.214Z,14.60
2019-03-05T20:05:53.519Z,9.53
2019-03-05T20:08:23.797Z,7.77
2019-03-05T20:10:53.097Z,11.00
2019-03-05T20:13:24.234Z,12.53
2019-03-05T20:15:54.156Z,15.27
2019-03-05T20:18:22.971Z,11.90
2019-03-05T20:20:52.915Z,10.57
2019-03-05T20:23:21.879Z,11.73
2019-03-05T20:25:51.926Z,16.00
2019-03-05T20:28:20.860Z,13.83
2019-03-05T20:30:50.911Z,17.57
2019-03-05T20:33:29.447Z,12.40
2019-03-05T20:35:59.529Z,18.13
2019-03-05T20:38:33.057Z,13.73
2019-03-05T20:41:01.919Z,16.43
2019-03-05T20:43:35.975Z,14.23
2019-03-05T20:46:18.994Z,13.07
2019-03-05T20:48:52.583Z,20.30
2019-03-05T20:51:24.850Z,16.70
2019-03-05T20:54:01.518Z,16.10
2019-03-05T20:56:30.496Z,15.87
2019-03-05T20:58:59.419Z,16.57
2019-03-05T21:01:28.339Z,13.97
2019-03-05T21:04:02.526Z,17.07
2019-03-05T21:06:31.518Z,14.67
2019-03-05T21:09:01.229Z,13.03
2019-03-05T21:11:31.275Z,14.23
2019-03-05T21:14:00.169Z,14.43
2019-03-05T21:16:28.961Z,15.50
2019-03-05T21:18:58.882Z,13.20
2019-03-05T21:21:29.880Z,11.27
2019-03-05T21:23:59.755Z,13.27
2019-03-05T21:26:29.676Z,8.60
2019-03-05T21:29:02.117Z,14.53
2019-03-05T21:31:31.011Z,13.83
2019-03-05T21:34:02.465Z,11.70
2019-03-05T21:36:31.264Z,11.60
2019-03-05T21:39:03.103Z,7.97
2019-03-05T21:41:32.210Z,12.70
2019-03-05T21:44:01.076Z,7.17
2019-03-05T21:46:32.202Z,8.27
2019-03-05T21:49:04.186Z,9.10
2019-03-05T21:51:36.166Z,7.90
2019-03-05T21:54:05.226Z,10.80
2019-03-05T21:56:36.343Z,7.00
2019-03-05T21:59:07.957Z,7.27
2019-03-05T22:01:43.449Z,10.40
2019-03-05T22:04:13.417Z,13.37
2019-03-05T22:06:43.422Z,8.20
2019-03-05T22:09:15.598Z,8.13
2019-03-05T22:11:44.650Z,9.10
2019-03-05T22:14:20.272Z,11.77
2019-03-05T22:16:50.160Z,8.33
2019-03-05T22:19:19.035Z,8.47
2019-03-05T22:21:48.987Z,8.70
2019-03-05T22:24:19.025Z,8.17
2019-03-05T22:26:50.950Z,11.50
2019-03-05T22:29:22.047Z,9.27
2019-03-05T22:31:53.241Z,8.97
2019-03-05T22:34:24.679Z,7.53
2019-03-05T22:36:54.694Z,7.10
2019-03-05T22:39:23.498Z,6.73
2019-03-05T22:41:59.615Z,8.50
2019-03-05T22:44:28.502Z,6.57
2019-03-05T22:46:58.412Z,12.97
2019-03-05T22:49:30.450Z,9.73
2019-03-05T22:52:01.439Z,8.07
2019-03-05T22:54:35.761Z,11.27
2019-03-05T22:57:04.547Z,10.97
2019-03-05T22:59:34.397Z,8.57
2019-03-05T23:02:03.543Z,10.40
2019-03-05T23:04:35.746Z,9.50
2019-03-05T23:07:06.732Z,11.77
2019-03-05T23:09:35.665Z,9.50
2019-03-05T23:12:08.945Z,10.17
2019-03-05T23:14:37.827Z,10.33
2019-03-05T23:17:08.874Z,6.93
2019-03-05T23:19:37.769Z,8.70
2019-03-05T23:22:07.997Z,10.63
2019-03-05T23:24:40.975Z,10.27
2019-03-05T23:27:12.445Z,7.90
2019-03-05T23:29:52.566Z,8.80
2019-03-05T23:32:35.227Z,8.07
2019-03-05T23:35:15.463Z,8.17
2019-03-05T23:37:42.905Z,5.87
2019-03-05T23:40:20.353Z,7.20
2019-03-05T23:42:50.394Z,9.43
2019-03-05T23:45:30.015Z,6.90
2019-03-05T23:48:05.790Z,11.53
2019-03-05T23:50:34.681Z,12.23
2019-03-05T23:53:04.757Z,6.87
2019-03-05T23:55:33.841Z,13.27
2019-03-05T23:58:13.207Z,9.53
